createdAt,value
2018-12-14T00:00:41.095Z,0
2018-12-14T00:01:41.073Z,0
2018-12-14T00:02:41.057Z,0
2018-12-14T00:03:41.041Z,0
2018-12-14T00:04:41.029Z,0
2018-12-14T00:05:41.012Z,0
2018-12-14T00:06:40.996Z,0
2018-12-14T00:07:40.979Z,0
2018-12-14T00:08:40.970Z,0
2018-12-14T00:09:40.947Z,0
2018-12-14T00:10:40.930Z,0
2018-12-14T00:11:45.479Z,0
2018-12-14T00:12:40.897Z,0
2018-12-14T00:13:40.893Z,0
2018-12-14T00:14:40.951Z,0
2018-12-14T00:15:40.856Z,0
2018-12-14T00:16:40.844Z,0
2018-12-14T00:17:40.831Z,0
2018-12-14T00:18:40.812Z,0
2018-12-14T00:19:40.790Z,0
2018-12-14T00:20:40.778Z,0
2018-12-14T00:21:40.765Z,0
2018-12-14T00:22:40.749Z,0
2018-12-14T00:23:40.733Z,0
2018-12-14T00:24:40.717Z,0
2018-12-14T00:25:40.699Z,0
2018-12-14T00:26:40.940Z,0
2018-12-14T00:27:40.670Z,0
2018-12-14T00:28:40.656Z,0
2018-12-14T00:29:40.698Z,0
2018-12-14T00:30:40.632Z,0
2018-12-14T00:31:40.615Z,0
2018-12-14T00:32:40.592Z,0
2018-12-14T00:33:40.628Z,0
2018-12-14T00:34:40.558Z,0
2018-12-14T00:35:40.546Z,0
2018-12-14T00:36:40.528Z,0
2018-12-14T00:37:40.573Z,0
2018-12-14T00:38:40.536Z,0
2018-12-14T00:39:40.482Z,0
2018-12-14T00:40:40.466Z,0
2018-12-14T00:41:40.450Z,0
2018-12-14T00:42:40.464Z,0
2018-12-14T00:43:40.421Z,0
2018-12-14T00:44:40.406Z,0
2018-12-14T00:45:40.384Z,0
2018-12-14T00:46:40.373Z,0
2018-12-14T00:47:40.370Z,0
2018-12-14T00:48:40.345Z,0
2018-12-14T00:49:40.324Z,0
2018-12-14T00:50:40.310Z,0
2018-12-14T00:51:40.296Z,0
2018-12-14T00:52:40.276Z,0
2018-12-14T00:53:40.261Z,0
2018-12-14T00:54:40.256Z,0
2018-12-14T00:55:40.230Z,0
2018-12-14T00:56:40.219Z,0
2018-12-14T00:57:40.450Z,0
2018-12-14T00:58:40.185Z,0
2018-12-14T00:59:40.166Z,0
2018-12-14T01:00:40.156Z,0
2018-12-14T01:01:40.151Z,0
2018-12-14T01:02:40.121Z,0
2018-12-14T01:03:40.116Z,0
2018-12-14T01:04:40.095Z,0
2018-12-14T01:05:40.077Z,0
2018-12-14T01:06:40.058Z,0
2018-12-14T01:07:40.049Z,0
2018-12-14T01:08:40.027Z,0
2018-12-14T01:09:40.019Z,0
2018-12-14T01:10:39.994Z,0
2018-12-14T01:11:40.025Z,0
2018-12-14T01:12:39.970Z,0
2018-12-14T01:13:39.973Z,0
2018-12-14T01:14:39.942Z,0
2018-12-14T01:15:39.916Z,0
2018-12-14T01:16:39.905Z,0
2018-12-14T01:17:39.886Z,0
2018-12-14T01:18:39.871Z,0
2018-12-14T01:19:39.853Z,0
2018-12-14T01:20:39.842Z,0
2018-12-14T01:21:39.866Z,0
2018-12-14T01:22:39.567Z,0
2018-12-14T01:23:39.796Z,0
2018-12-14T01:24:39.785Z,0
2018-12-14T01:25:39.761Z,0
2018-12-14T01:26:39.745Z,0
2018-12-14T01:27:39.734Z,0
2018-12-14T01:28:39.960Z,0
2018-12-14T01:29:39.699Z,0
2018-12-14T01:30:39.687Z,0
2018-12-14T01:31:39.668Z,0
2018-12-14T01:32:39.650Z,0
2018-12-14T01:33:39.633Z,0
2018-12-14T01:34:39.618Z,0
2018-12-14T01:35:39.604Z,0
2018-12-14T01:36:39.586Z,0
2018-12-14T01:37:39.574Z,0
2018-12-14T01:38:39.552Z,0
2018-12-14T01:39:39.542Z,0
2018-12-14T01:40:39.531Z,0
2018-12-14T01:41:39.525Z,0
2018-12-14T01:42:39.490Z,0
2018-12-14T01:43:39.479Z,0
2018-12-14T01:44:39.524Z,0
2018-12-14T01:45:39.443Z,0
2018-12-14T01:46:39.431Z,0
2018-12-14T01:47:39.476Z,0
2018-12-14T01:48:39.396Z,0
2018-12-14T01:49:39.385Z,0
2018-12-14T01:50:39.365Z,0
2018-12-14T01:51:39.345Z,0
2018-12-14T01:52:39.329Z,0
2018-12-14T01:53:39.312Z,0
2018-12-14T01:54:39.300Z,0
2018-12-14T01:55:39.286Z,0
2018-12-14T01:56:39.265Z,0
2018-12-14T01:57:39.248Z,0
2018-12-14T01:58:39.238Z,0
2018-12-14T01:59:39.474Z,0
2018-12-14T02:00:39.203Z,0
2018-12-14T02:01:39.184Z,0
2018-12-14T02:02:39.172Z,0
2018-12-14T02:03:39.153Z,0
2018-12-14T02:04:39.643Z,0
2018-12-14T02:05:39.133Z,0
2018-12-14T02:06:39.107Z,0
2018-12-14T02:07:39.088Z,0
2018-12-14T02:08:39.078Z,0
2018-12-14T02:09:39.057Z,0
2018-12-14T02:10:39.039Z,0
2018-12-14T02:11:39.020Z,0
2018-12-14T02:12:39.017Z,0
2018-12-14T02:13:38.992Z,0
2018-12-14T02:14:38.979Z,0
2018-12-14T02:15:38.961Z,0
2018-12-14T02:16:38.944Z,0
2018-12-14T02:17:38.691Z,0
2018-12-14T02:18:38.916Z,0
2018-12-14T02:19:38.903Z,0
2018-12-14T02:20:38.877Z,0
2018-12-14T02:21:38.865Z,0
2018-12-14T02:22:38.849Z,0
2018-12-14T02:23:38.834Z,0
2018-12-14T02:24:38.818Z,0
2018-12-14T02:25:38.804Z,0
2018-12-14T02:26:38.783Z,0
2018-12-14T02:27:38.769Z,0
2018-12-14T02:28:38.752Z,0
2018-12-14T02:29:38.737Z,0
2018-12-14T02:30:38.724Z,0
2018-12-14T02:31:38.707Z,0
2018-12-14T02:32:38.688Z,0
2018-12-14T02:33:38.694Z,0
2018-12-14T02:34:38.666Z,0
2018-12-14T02:35:38.639Z,0
2018-12-14T02:36:38.627Z,0
2018-12-14T02:37:38.603Z,0
2018-12-14T02:38:38.597Z,0
2018-12-14T02:39:38.677Z,0
2018-12-14T02:40:38.329Z,0
2018-12-14T02:41:38.560Z,0
2018-12-14T02:42:38.526Z,0
2018-12-14T02:43:38.513Z,0
2018-12-14T02:44:38.257Z,0
2018-12-14T02:45:38.484Z,0
2018-12-14T02:46:38.458Z,0
2018-12-14T02:47:38.456Z,0
2018-12-14T02:48:38.425Z,0
2018-12-14T02:49:39.844Z,0
2018-12-14T02:50:38.400Z,0
2018-12-14T02:51:38.377Z,0
2018-12-14T02:52:38.361Z,0
2018-12-14T02:53:38.355Z,0
2018-12-14T02:54:38.359Z,0
2018-12-14T02:55:38.325Z,0
2018-12-14T02:56:38.304Z,0
2018-12-14T02:57:38.296Z,0
2018-12-14T02:58:38.282Z,0
2018-12-14T02:59:38.246Z,0
2018-12-14T03:00:38.227Z,0
2018-12-14T03:01:38.214Z,0
2018-12-14T03:02:38.464Z,0
2018-12-14T03:03:38.180Z,0
2018-12-14T03:04:38.172Z,0
2018-12-14T03:05:38.147Z,0
2018-12-14T03:06:38.128Z,0
2018-12-14T03:07:38.115Z,0
2018-12-14T03:08:38.115Z,0
2018-12-14T03:09:38.078Z,0
2018-12-14T03:10:38.069Z,0
2018-12-14T03:11:37.816Z,0
2018-12-14T03:12:38.334Z,0
2018-12-14T03:13:38.033Z,0
2018-12-14T03:14:38.057Z,0
2018-12-14T03:15:37.982Z,0
2018-12-14T03:16:37.971Z,0
2018-12-14T03:17:37.947Z,0
2018-12-14T03:18:37.931Z,0
2018-12-14T03:19:37.929Z,0
2018-12-14T03:20:37.890Z,0
2018-12-14T03:21:37.882Z,0
2018-12-14T03:22:37.866Z,0
2018-12-14T03:23:37.848Z,0
2018-12-14T03:24:37.831Z,0
2018-12-14T03:25:37.808Z,0
2018-12-14T03:26:37.799Z,0
2018-12-14T03:27:37.772Z,0
2018-12-14T03:28:37.763Z,0
2018-12-14T03:29:37.740Z,0
2018-12-14T03:30:37.742Z,0
2018-12-14T03:31:37.729Z,0
2018-12-14T03:32:37.719Z,0
2018-12-14T03:33:37.689Z,0
2018-12-14T03:34:37.678Z,0
2018-12-14T03:35:37.636Z,0
2018-12-14T03:36:37.620Z,0
2018-12-14T03:37:37.604Z,0
2018-12-14T03:38:37.589Z,0
2018-12-14T03:39:37.571Z,0
2018-12-14T03:40:37.559Z,0
2018-12-14T03:41:37.540Z,0
2018-12-14T03:42:41.500Z,0
2018-12-14T03:43:37.511Z,0
2018-12-14T03:44:37.495Z,0
2018-12-14T03:45:37.469Z,0
2018-12-14T03:46:37.232Z,0
2018-12-14T03:47:37.434Z,0
2018-12-14T03:48:37.423Z,0
2018-12-14T03:49:37.402Z,0
2018-12-14T03:50:37.392Z,0
2018-12-14T03:51:37.364Z,0
2018-12-14T03:52:37.345Z,0
2018-12-14T03:53:37.336Z,0
2018-12-14T03:54:37.311Z,0
2018-12-14T03:55:37.303Z,0
2018-12-14T03:56:37.278Z,0
2018-12-14T03:57:37.268Z,0
2018-12-14T03:58:37.251Z,0
2018-12-14T03:59:37.280Z,0
2018-12-14T04:00:37.214Z,0
2018-12-14T04:01:37.195Z,0
2018-12-14T04:02:37.177Z,0
2018-12-14T04:03:37.158Z,0
2018-12-14T04:04:37.393Z,0
2018-12-14T04:05:37.130Z,0
2018-12-14T04:06:37.106Z,0
2018-12-14T04:07:37.105Z,0
2018-12-14T04:08:37.077Z,0
2018-12-14T04:09:37.095Z,0
2018-12-14T04:10:37.047Z,0
2018-12-14T04:11:37.025Z,0
2018-12-14T04:12:43.947Z,0
2018-12-14T04:13:36.986Z,0
2018-12-14T04:14:36.980Z,0
2018-12-14T04:15:36.955Z,0
2018-12-14T04:16:36.951Z,0
2018-12-14T04:17:36.917Z,0
2018-12-14T04:18:36.898Z,0
2018-12-14T04:19:36.882Z,0
2018-12-14T04:20:36.873Z,0
2018-12-14T04:21:36.845Z,0
2018-12-14T04:22:36.832Z,0
2018-12-14T04:23:36.813Z,0
2018-12-14T04:24:36.796Z,0
2018-12-14T04:25:36.786Z,0
2018-12-14T04:26:36.789Z,0
2018-12-14T04:27:36.748Z,0
2018-12-14T04:28:36.724Z,0
2018-12-14T04:29:36.715Z,0
2018-12-14T04:30:36.702Z,0
2018-12-14T04:31:36.690Z,0
2018-12-14T04:32:36.667Z,0
2018-12-14T04:33:36.643Z,0
2018-12-14T04:34:36.720Z,0
2018-12-14T04:35:36.881Z,0
2018-12-14T04:36:36.603Z,0
2018-12-14T04:37:36.570Z,0
2018-12-14T04:38:36.559Z,0
2018-12-14T04:39:38.381Z,0
2018-12-14T04:40:36.520Z,0
2018-12-14T04:41:36.527Z,0
2018-12-14T04:42:36.502Z,0
2018-12-14T04:43:36.469Z,0
2018-12-14T04:44:36.456Z,0
2018-12-14T04:45:36.436Z,0
2018-12-14T04:46:36.416Z,0
2018-12-14T04:47:36.407Z,0
2018-12-14T04:48:36.389Z,0
2018-12-14T04:49:36.371Z,0
2018-12-14T04:50:36.350Z,0
2018-12-14T04:51:36.335Z,0
2018-12-14T04:52:36.334Z,0
2018-12-14T04:53:36.295Z,0
2018-12-14T04:54:36.286Z,0
2018-12-14T04:55:36.264Z,0
2018-12-14T04:56:36.279Z,0
2018-12-14T04:57:36.265Z,0
2018-12-14T04:58:36.228Z,0
2018-12-14T04:59:36.208Z,0
2018-12-14T05:00:36.186Z,0
2018-12-14T05:01:36.163Z,0
2018-12-14T05:02:36.153Z,0
2018-12-14T05:03:36.144Z,0
2018-12-14T05:04:36.118Z,0
2018-12-14T05:05:35.859Z,0
2018-12-14T05:06:36.395Z,0
2018-12-14T05:07:36.062Z,0
2018-12-14T05:08:36.053Z,0
2018-12-14T05:09:36.030Z,0
2018-12-14T05:10:36.018Z,0
2018-12-14T05:11:35.997Z,0
2018-12-14T05:12:35.985Z,0
2018-12-14T05:13:35.970Z,0
2018-12-14T05:14:35.958Z,0
2018-12-14T05:15:35.700Z,0
2018-12-14T05:16:35.919Z,0
2018-12-14T05:17:35.901Z,0
2018-12-14T05:18:35.879Z,0
2018-12-14T05:19:35.622Z,0
2018-12-14T05:20:35.855Z,0
2018-12-14T05:21:35.838Z,0
2018-12-14T05:22:35.816Z,0
2018-12-14T05:23:35.804Z,0
2018-12-14T05:24:35.789Z,0
2018-12-14T05:25:35.767Z,0
2018-12-14T05:26:36.150Z,0
2018-12-14T05:27:35.737Z,0
2018-12-14T05:28:35.474Z,0
2018-12-14T05:29:35.707Z,0
2018-12-14T05:30:35.688Z,0
2018-12-14T05:31:35.669Z,0
2018-12-14T05:32:35.648Z,0
2018-12-14T05:33:35.641Z,0
2018-12-14T05:34:35.627Z,0
2018-12-14T05:35:35.606Z,0
2018-12-14T05:36:35.592Z,0
2018-12-14T05:37:35.575Z,0
2018-12-14T05:38:35.552Z,0
2018-12-14T05:39:35.540Z,0
2018-12-14T05:40:35.519Z,0
2018-12-14T05:41:36.121Z,0
2018-12-14T05:42:35.495Z,0
2018-12-14T05:43:35.475Z,0
2018-12-14T05:44:35.457Z,0
2018-12-14T05:45:35.456Z,0
2018-12-14T05:46:36.508Z,0
2018-12-14T05:47:35.413Z,0
2018-12-14T05:48:35.394Z,0
2018-12-14T05:49:35.379Z,0
2018-12-14T05:50:35.370Z,0
2018-12-14T05:51:35.341Z,0
2018-12-14T05:52:35.332Z,0
2018-12-14T05:53:35.316Z,0
2018-12-14T05:54:35.293Z,0
2018-12-14T05:55:35.282Z,0
2018-12-14T05:56:35.263Z,0
2018-12-14T05:57:35.257Z,0
2018-12-14T05:58:35.230Z,0
2018-12-14T05:59:35.216Z,0
2018-12-14T06:00:35.266Z,0
2018-12-14T06:01:35.185Z,0
2018-12-14T06:02:35.169Z,0
2018-12-14T06:03:35.150Z,0
2018-12-14T06:04:35.144Z,0
2018-12-14T06:05:35.123Z,0
2018-12-14T06:06:35.118Z,0
2018-12-14T06:07:35.085Z,0
2018-12-14T06:08:35.073Z,0
2018-12-14T06:09:35.305Z,16
2018-12-14T06:10:35.040Z,28
2018-12-14T06:11:35.022Z,36
2018-12-14T06:12:35.006Z,36
2018-12-14T06:13:34.990Z,0
2018-12-14T06:14:34.973Z,0
2018-12-14T06:15:34.956Z,0
2018-12-14T06:16:34.941Z,0
2018-12-14T06:17:34.922Z,0
2018-12-14T06:18:34.914Z,0
2018-12-14T06:19:34.896Z,0
2018-12-14T06:20:34.878Z,0
2018-12-14T06:21:34.868Z,0
2018-12-14T06:22:34.912Z,0
2018-12-14T06:23:34.827Z,0
2018-12-14T06:24:34.818Z,0
2018-12-14T06:25:34.819Z,0
2018-12-14T06:26:34.779Z,0
2018-12-14T06:27:34.767Z,0
2018-12-14T06:28:34.746Z,0
2018-12-14T06:29:34.732Z,0
2018-12-14T06:30:34.713Z,4
2018-12-14T06:31:34.459Z,0
2018-12-14T06:32:34.684Z,0
2018-12-14T06:33:34.671Z,4
2018-12-14T06:34:34.648Z,0
2018-12-14T06:35:34.632Z,4
2018-12-14T06:36:34.620Z,4
2018-12-14T06:37:34.602Z,4
2018-12-14T06:38:34.587Z,4
2018-12-14T06:39:34.568Z,8
2018-12-14T06:40:34.802Z,8
2018-12-14T06:41:34.569Z,8
2018-12-14T06:42:34.524Z,12
2018-12-14T06:43:34.510Z,12
2018-12-14T06:44:34.502Z,16
2018-12-14T06:45:34.475Z,12
2018-12-14T06:46:34.463Z,16
2018-12-14T06:47:34.443Z,20
2018-12-14T06:48:34.421Z,24
2018-12-14T06:49:34.408Z,24
2018-12-14T06:50:34.411Z,32
2018-12-14T06:51:34.377Z,36
2018-12-14T06:52:34.362Z,36
2018-12-14T06:53:34.348Z,44
2018-12-14T06:54:34.325Z,44
2018-12-14T06:55:34.313Z,52
2018-12-14T06:56:34.301Z,60
2018-12-14T06:57:34.292Z,64
2018-12-14T06:58:34.265Z,72
2018-12-14T06:59:34.249Z,80
2018-12-14T07:00:34.232Z,88
2018-12-14T07:01:34.221Z,96
2018-12-14T07:02:34.199Z,104
2018-12-14T07:03:34.184Z,112
2018-12-14T07:04:34.169Z,124
2018-12-14T07:05:34.159Z,128
2018-12-14T07:06:34.144Z,140
2018-12-14T07:07:33.890Z,152
2018-12-14T07:08:34.119Z,160
2018-12-14T07:09:34.092Z,172
2018-12-14T07:10:34.071Z,184
2018-12-14T07:11:34.055Z,196
2018-12-14T07:12:34.044Z,208
2018-12-14T07:13:34.023Z,224
2018-12-14T07:14:34.011Z,240
2018-12-14T07:15:33.991Z,256
2018-12-14T07:16:33.973Z,268
2018-12-14T07:17:33.956Z,288
2018-12-14T07:18:33.946Z,304
2018-12-14T07:19:33.930Z,316
2018-12-14T07:20:33.917Z,336
2018-12-14T07:21:33.895Z,360
2018-12-14T07:22:33.878Z,380
2018-12-14T07:23:33.863Z,404
2018-12-14T07:24:33.848Z,424
2018-12-14T07:25:33.837Z,444
2018-12-14T07:26:33.814Z,464
2018-12-14T07:27:33.565Z,484
2018-12-14T07:28:33.783Z,500
2018-12-14T07:29:33.769Z,516
2018-12-14T07:30:33.751Z,532
2018-12-14T07:31:33.736Z,552
2018-12-14T07:32:33.726Z,568
2018-12-14T07:33:33.722Z,588
2018-12-14T07:34:33.700Z,608
2018-12-14T07:35:33.672Z,636
2018-12-14T07:36:33.660Z,656
2018-12-14T07:37:33.637Z,676
2018-12-14T07:38:33.626Z,704
2018-12-14T07:39:33.613Z,728
2018-12-14T07:40:33.593Z,752
2018-12-14T07:41:33.573Z,772
2018-12-14T07:42:33.571Z,788
2018-12-14T07:43:35.623Z,808
2018-12-14T07:44:33.931Z,832
2018-12-14T07:45:33.520Z,864
2018-12-14T07:46:33.521Z,900
2018-12-14T07:47:33.484Z,936
2018-12-14T07:48:33.474Z,964
2018-12-14T07:49:33.451Z,988
2018-12-14T07:50:33.437Z,1004
2018-12-14T07:51:33.421Z,1024
2018-12-14T07:52:33.405Z,1048
2018-12-14T07:53:33.391Z,1076
2018-12-14T07:54:33.372Z,1104
2018-12-14T07:55:33.355Z,1136
2018-12-14T07:56:33.338Z,1164
2018-12-14T07:57:33.326Z,1188
2018-12-14T07:58:33.310Z,1216
2018-12-14T07:59:33.295Z,1240
2018-12-14T08:00:33.276Z,1284
2018-12-14T08:01:33.262Z,1324
2018-12-14T08:02:34.455Z,1348
2018-12-14T08:03:33.226Z,1372
2018-12-14T08:04:33.211Z,1400
2018-12-14T08:05:33.199Z,1424
2018-12-14T08:06:32.945Z,1444
2018-12-14T08:07:33.169Z,1476
2018-12-14T08:08:33.158Z,1512
2018-12-14T08:09:33.134Z,1560
2018-12-14T08:10:33.114Z,1600
2018-12-14T08:11:33.105Z,1640
2018-12-14T08:12:33.094Z,1680
2018-12-14T08:13:39.208Z,1716
2018-12-14T08:14:33.053Z,1752
2018-12-14T08:15:33.039Z,1800
2018-12-14T08:16:33.025Z,1840
2018-12-14T08:17:33.011Z,1876
2018-12-14T08:18:32.989Z,1900
2018-12-14T08:19:32.981Z,1920
2018-12-14T08:20:32.962Z,1948
2018-12-14T08:21:32.939Z,1980
2018-12-14T08:22:32.927Z,2020
2018-12-14T08:23:32.911Z,2052
2018-12-14T08:24:32.900Z,2072
2018-12-14T08:25:32.907Z,2084
2018-12-14T08:26:32.925Z,2104
2018-12-14T08:27:32.846Z,2132
2018-12-14T08:28:32.840Z,2176
2018-12-14T08:29:32.820Z,2228
2018-12-14T08:30:32.800Z,2276
2018-12-14T08:31:32.790Z,2308
2018-12-14T08:32:32.768Z,2324
2018-12-14T08:33:32.754Z,2344
2018-12-14T08:34:32.739Z,2376
2018-12-14T08:35:32.732Z,2428
2018-12-14T08:36:32.706Z,2484
2018-12-14T08:37:32.703Z,2540
2018-12-14T08:38:32.677Z,2580
2018-12-14T08:39:32.692Z,2612
2018-12-14T08:40:32.646Z,2644
2018-12-14T08:41:32.629Z,2684
2018-12-14T08:42:32.615Z,2728
2018-12-14T08:43:32.601Z,2788
2018-12-14T08:44:32.584Z,2832
2018-12-14T08:45:32.569Z,2888
2018-12-14T08:46:32.552Z,2952
2018-12-14T08:47:33.284Z,3028
2018-12-14T08:48:32.534Z,3116
2018-12-14T08:49:32.584Z,3208
2018-12-14T08:50:32.493Z,3296
2018-12-14T08:51:32.734Z,3352
2018-12-14T08:52:32.522Z,3380
2018-12-14T08:53:32.447Z,3404
2018-12-14T08:54:32.438Z,3420
2018-12-14T08:55:32.425Z,3436
2018-12-14T08:56:32.398Z,3472
2018-12-14T08:57:32.386Z,3520
2018-12-14T08:58:32.367Z,3584
2018-12-14T08:59:32.356Z,3656
2018-12-14T09:00:32.342Z,3728
2018-12-14T09:01:32.326Z,3784
2018-12-14T09:02:32.311Z,3828
2018-12-14T09:03:32.299Z,3856
2018-12-14T09:04:32.283Z,3880
2018-12-14T09:05:32.266Z,3904
2018-12-14T09:06:32.248Z,3956
2018-12-14T09:07:32.236Z,3996
2018-12-14T09:08:32.223Z,4044
2018-12-14T09:09:32.202Z,4100
2018-12-14T09:10:32.185Z,4152
2018-12-14T09:11:32.232Z,4192
2018-12-14T09:12:32.157Z,4204
2018-12-14T09:13:32.149Z,4216
2018-12-14T09:14:32.135Z,4236
2018-12-14T09:15:32.113Z,4292
2018-12-14T09:16:32.097Z,4340
2018-12-14T09:17:32.082Z,4364
2018-12-14T09:18:32.066Z,4428
2018-12-14T09:19:32.068Z,4500
2018-12-14T09:20:32.037Z,4564
2018-12-14T09:21:32.025Z,4624
2018-12-14T09:22:32.013Z,4656
2018-12-14T09:23:31.994Z,4668
2018-12-14T09:24:31.984Z,4668
2018-12-14T09:25:31.965Z,4672
2018-12-14T09:26:32.004Z,4688
2018-12-14T09:27:31.935Z,4700
2018-12-14T09:28:31.924Z,4768
2018-12-14T09:29:31.914Z,4792
2018-12-14T09:30:31.888Z,4788
2018-12-14T09:31:31.875Z,4804
2018-12-14T09:32:31.861Z,4836
2018-12-14T09:33:31.847Z,4840
2018-12-14T09:34:31.832Z,4812
2018-12-14T09:35:31.819Z,4772
2018-12-14T09:36:31.809Z,4668
2018-12-14T09:37:31.788Z,4668
2018-12-14T09:38:31.773Z,4680
2018-12-14T09:39:31.765Z,4644
2018-12-14T09:40:31.744Z,4644
2018-12-14T09:41:31.730Z,4580
2018-12-14T09:42:31.714Z,4620
2018-12-14T09:43:31.700Z,4548
2018-12-14T09:44:31.689Z,4460
2018-12-14T09:45:31.672Z,4392
2018-12-14T09:46:36.985Z,4460
2018-12-14T09:47:31.638Z,4548
2018-12-14T09:48:31.624Z,4616
2018-12-14T09:49:31.621Z,4660
2018-12-14T09:50:31.606Z,4712
2018-12-14T09:51:31.584Z,4772
2018-12-14T09:52:31.580Z,4776
2018-12-14T09:53:31.553Z,4776
2018-12-14T09:54:31.541Z,4836
2018-12-14T09:55:31.526Z,4860
2018-12-14T09:56:31.512Z,4888
2018-12-14T09:57:31.508Z,4972
2018-12-14T09:58:31.482Z,5008
2018-12-14T09:59:31.469Z,4976
2018-12-14T10:00:31.448Z,4760
2018-12-14T10:01:31.440Z,4688
2018-12-14T10:02:31.422Z,4828
2018-12-14T10:03:31.406Z,4876
2018-12-14T10:04:31.393Z,4944
2018-12-14T10:05:31.379Z,4888
2018-12-14T10:06:31.366Z,4792
2018-12-14T10:07:31.348Z,4796
2018-12-14T10:08:31.342Z,4932
2018-12-14T10:09:31.322Z,4908
2018-12-14T10:10:31.328Z,4976
2018-12-14T10:11:31.050Z,5024
2018-12-14T10:12:31.289Z,5056
2018-12-14T10:13:31.268Z,5200
2018-12-14T10:14:31.321Z,5160
2018-12-14T10:15:31.233Z,5000
2018-12-14T10:16:31.222Z,5000
2018-12-14T10:17:31.209Z,4980
2018-12-14T10:18:31.194Z,4832
2018-12-14T10:19:31.177Z,4884
2018-12-14T10:20:31.165Z,4936
2018-12-14T10:21:31.145Z,4952
2018-12-14T10:22:31.130Z,4904
2018-12-14T10:23:31.123Z,4876
2018-12-14T10:24:31.105Z,4896
2018-12-14T10:25:31.086Z,4752
2018-12-14T10:26:31.086Z,4792
2018-12-14T10:27:31.058Z,4920
2018-12-14T10:28:31.044Z,4964
2018-12-14T10:29:31.033Z,5064
2018-12-14T10:30:31.015Z,4984
2018-12-14T10:31:31.000Z,4968
2018-12-14T10:32:31.027Z,4948
2018-12-14T10:33:30.974Z,4892
2018-12-14T10:34:30.964Z,4924
2018-12-14T10:35:30.706Z,4908
2018-12-14T10:36:30.931Z,4896
2018-12-14T10:37:30.913Z,4868
2018-12-14T10:38:30.898Z,4852
2018-12-14T10:39:30.887Z,4844
2018-12-14T10:40:30.874Z,4824
2018-12-14T10:41:30.857Z,4812
2018-12-14T10:42:30.840Z,4812
2018-12-14T10:43:30.834Z,4812
2018-12-14T10:44:34.661Z,4796
2018-12-14T10:45:30.802Z,4780
2018-12-14T10:46:30.786Z,4756
2018-12-14T10:47:30.767Z,4732
2018-12-14T10:48:30.761Z,4708
2018-12-14T10:49:30.740Z,4676
2018-12-14T10:50:40.946Z,4636
2018-12-14T10:51:30.714Z,4628
2018-12-14T10:52:30.702Z,4636
2018-12-14T10:53:30.690Z,4640
2018-12-14T10:54:30.429Z,4608
2018-12-14T10:55:30.656Z,4560
2018-12-14T10:56:30.644Z,4528
2018-12-14T10:57:30.626Z,4504
2018-12-14T10:58:30.609Z,4472
2018-12-14T10:59:30.597Z,4424
2018-12-14T11:00:30.584Z,4340
2018-12-14T11:01:30.564Z,4348
2018-12-14T11:02:30.552Z,4380
2018-12-14T11:03:30.536Z,4428
2018-12-14T11:04:31.047Z,4460
2018-12-14T11:05:30.507Z,4468
2018-12-14T11:06:30.498Z,4420
2018-12-14T11:07:30.478Z,4372
2018-12-14T11:08:30.462Z,4344
2018-12-14T11:09:30.453Z,4332
2018-12-14T11:10:30.442Z,4328
2018-12-14T11:11:30.420Z,4300
2018-12-14T11:12:30.417Z,4232
2018-12-14T11:13:30.386Z,4132
2018-12-14T11:14:30.395Z,4016
2018-12-14T11:15:30.436Z,3920
2018-12-14T11:16:30.357Z,3848
2018-12-14T11:17:30.335Z,3804
2018-12-14T11:18:30.385Z,3816
2018-12-14T11:19:30.304Z,3832
2018-12-14T11:20:30.307Z,3844
2018-12-14T11:21:30.279Z,3848
2018-12-14T11:22:30.266Z,3832
2018-12-14T11:23:30.258Z,3784
2018-12-14T11:24:30.230Z,3740
2018-12-14T11:25:30.213Z,3720
2018-12-14T11:26:30.200Z,3716
2018-12-14T11:27:30.185Z,3728
2018-12-14T11:28:30.178Z,3724
2018-12-14T11:29:30.320Z,3696
2018-12-14T11:30:30.141Z,3656
2018-12-14T11:31:30.129Z,3592
2018-12-14T11:32:30.117Z,3532
2018-12-14T11:33:30.095Z,3480
2018-12-14T11:34:36.696Z,3424
2018-12-14T11:35:30.067Z,3372
2018-12-14T11:36:30.054Z,3340
2018-12-14T11:37:30.038Z,3324
2018-12-14T11:38:30.022Z,3316
2018-12-14T11:39:30.014Z,3292
2018-12-14T11:40:29.999Z,3272
2018-12-14T11:41:29.985Z,3252
2018-12-14T11:42:29.971Z,3220
2018-12-14T11:43:29.965Z,3168
2018-12-14T11:44:29.937Z,3112
2018-12-14T11:45:29.928Z,3060
2018-12-14T11:46:29.916Z,3020
2018-12-14T11:47:30.603Z,2984
2018-12-14T11:48:29.874Z,2940
2018-12-14T11:49:29.863Z,2908
2018-12-14T11:50:29.845Z,2884
2018-12-14T11:51:29.831Z,2864
2018-12-14T11:52:29.816Z,2852
2018-12-14T11:53:29.810Z,2832
2018-12-14T11:54:29.804Z,2832
2018-12-14T11:55:29.771Z,2832
2018-12-14T11:56:29.762Z,2812
2018-12-14T11:57:29.742Z,2784
2018-12-14T11:58:29.730Z,2740
2018-12-14T11:59:29.715Z,2688
2018-12-14T12:00:29.488Z,2640
2018-12-14T12:01:29.684Z,2588
2018-12-14T12:02:29.670Z,2540
2018-12-14T12:03:29.652Z,2488
2018-12-14T12:04:29.636Z,2452
2018-12-14T12:05:29.621Z,2416
2018-12-14T12:06:29.608Z,2384
2018-12-14T12:07:29.595Z,2356
2018-12-14T12:08:29.581Z,2324
2018-12-14T12:09:29.567Z,2296
2018-12-14T12:10:29.548Z,2272
2018-12-14T12:11:29.539Z,2248
2018-12-14T12:12:29.519Z,2220
2018-12-14T12:13:29.502Z,2196
2018-12-14T12:14:34.128Z,2176
2018-12-14T12:15:29.475Z,2164
2018-12-14T12:16:29.459Z,2144
2018-12-14T12:17:29.449Z,2112
2018-12-14T12:18:29.432Z,2076
2018-12-14T12:19:29.425Z,2076
2018-12-14T12:20:29.405Z,2080
2018-12-14T12:21:29.401Z,2100
2018-12-14T12:22:29.128Z,2124
2018-12-14T12:23:29.353Z,2156
2018-12-14T12:24:29.339Z,2180
2018-12-14T12:25:29.332Z,2192
2018-12-14T12:26:29.310Z,2196
2018-12-14T12:27:29.304Z,2184
2018-12-14T12:28:29.279Z,2152
2018-12-14T12:29:29.262Z,2140
2018-12-14T12:30:29.251Z,2160
2018-12-14T12:31:29.232Z,2172
2018-12-14T12:32:29.224Z,2152
2018-12-14T12:33:29.204Z,2104
2018-12-14T12:34:29.193Z,2048
2018-12-14T12:35:29.180Z,1988
2018-12-14T12:36:29.161Z,1956
2018-12-14T12:37:29.143Z,1964
2018-12-14T12:38:29.132Z,1960
2018-12-14T12:39:29.127Z,1944
2018-12-14T12:40:29.117Z,1888
2018-12-14T12:41:29.090Z,1852
2018-12-14T12:42:29.075Z,1836
2018-12-14T12:43:29.056Z,1824
2018-12-14T12:44:33.413Z,1792
2018-12-14T12:45:29.037Z,1748
2018-12-14T12:46:29.015Z,1708
2018-12-14T12:47:28.997Z,1672
2018-12-14T12:48:28.984Z,1668
2018-12-14T12:49:28.966Z,1664
2018-12-14T12:50:30.256Z,1672
2018-12-14T12:51:28.940Z,1688
2018-12-14T12:52:28.928Z,1688
2018-12-14T12:53:28.913Z,1592
2018-12-14T12:54:28.895Z,1488
2018-12-14T12:55:28.881Z,1424
2018-12-14T12:56:28.868Z,1304
2018-12-14T12:57:28.852Z,1260
2018-12-14T12:58:28.835Z,1276
2018-12-14T12:59:28.828Z,1316
2018-12-14T13:00:28.806Z,1328
2018-12-14T13:01:28.802Z,1348
2018-12-14T13:02:28.775Z,1324
2018-12-14T13:03:28.768Z,1268
2018-12-14T13:04:28.746Z,1204
2018-12-14T13:05:34.645Z,1160
2018-12-14T13:06:28.720Z,1140
2018-12-14T13:07:28.703Z,1156
2018-12-14T13:08:28.688Z,1120
2018-12-14T13:09:28.677Z,1028
2018-12-14T13:10:28.664Z,1060
2018-12-14T13:11:28.655Z,1152
2018-12-14T13:12:28.630Z,1248
2018-12-14T13:13:28.612Z,1332
2018-12-14T13:14:28.601Z,1392
2018-12-14T13:15:28.589Z,1424
2018-12-14T13:16:28.651Z,1364
2018-12-14T13:17:28.600Z,1280
2018-12-14T13:18:28.539Z,1172
2018-12-14T13:19:28.595Z,1076
2018-12-14T13:20:28.512Z,1008
2018-12-14T13:21:28.551Z,1020
2018-12-14T13:22:28.481Z,1096
2018-12-14T13:23:28.464Z,1192
2018-12-14T13:24:28.453Z,1228
2018-12-14T13:25:28.438Z,1124
2018-12-14T13:26:28.423Z,920
2018-12-14T13:27:28.414Z,784
2018-12-14T13:28:28.391Z,760
2018-12-14T13:29:28.381Z,840
2018-12-14T13:30:28.365Z,928
2018-12-14T13:31:28.362Z,960
2018-12-14T13:32:28.330Z,952
2018-12-14T13:33:28.319Z,928
2018-12-14T13:34:28.305Z,892
2018-12-14T13:35:28.285Z,828
2018-12-14T13:36:28.270Z,804
2018-12-14T13:37:28.263Z,756
2018-12-14T13:38:28.272Z,784
2018-12-14T13:39:28.288Z,788
2018-12-14T13:40:28.243Z,772
2018-12-14T13:41:28.256Z,708
2018-12-14T13:42:28.230Z,652
2018-12-14T13:43:28.184Z,596
2018-12-14T13:44:29.038Z,584
2018-12-14T13:45:28.148Z,616
2018-12-14T13:46:28.152Z,668
2018-12-14T13:47:28.125Z,668
2018-12-14T13:48:28.156Z,648
2018-12-14T13:49:28.127Z,632
2018-12-14T13:50:28.090Z,628
2018-12-14T13:51:28.042Z,596
2018-12-14T13:52:29.212Z,576
2018-12-14T13:53:28.011Z,608
2018-12-14T13:54:27.756Z,576
2018-12-14T13:55:27.985Z,540
2018-12-14T13:56:27.975Z,492
2018-12-14T13:57:27.952Z,496
2018-12-14T13:58:27.944Z,556
2018-12-14T13:59:27.923Z,584
2018-12-14T14:00:27.907Z,588
2018-12-14T14:01:27.901Z,548
2018-12-14T14:02:27.877Z,484